Ceresole Reale, Italy

12:14 PM CET on January 24, 2017 (GMT +0100)
Rhemes-Notre-Dame | | Change Station

Elev 5984 ft 45.56 °N, 7.11 °E | Updated 13 minutes ago

Clear
Clear
30.5 °F
Feels Like 30 °F
N
1.0
Wind Variable Wind from SSW
Gusts 2.0 mph

Today
High -- | Low -- °F
--% Chance of Precip.
Yesterday
High -- | Low -- °F
Precip. -- in
Pressure 30.06 in
Visibility -9999.0 miles
Clouds
Windchill 30 °F
Dew Point 2 °F
Humidity 30%
Rainfall 0.00 in
Snow Depth Not available.
8:00 AM 5:26 PM
Waning Crescent, 12% visible
METAR LIMF 241050Z 18003KT 130V220 CAVOK 07/M08 Q1018
Pressure 30.06 in
Visibility -9999.0 miles
Clouds
Windchill 30 °F
Dew Point 2 °F
Humidity 30%
Rainfall 0.00 in
Snow Depth Not available.
8:00 AM 5:26 PM
Waning Crescent, 12% visible
METAR LIMF 241050Z 18003KT 130V220 CAVOK 07/M08 Q1018

Get Your Daily Forecast Email!

Thanks for signing up!

Be on the lookout for a verification email in your inbox.

You'll start receiving the daily forecast at 8 AM.

×

10-Day Weather Forecast

×

Almanac

Astronomy

Jan. 24, 2017 Rise Set
Actual Time
Civil Twilight
Nautical Twilight
Astronomical Twilight
Moon
Length of Visible Light
Length of Day
Tomorrow will be .
, % of the Moon is Illuminated

Today's Extremes

Country Highs Country Lows

Community

WunderPhotos

Upload Photos

1,962,540 photos uploaded!

WunderBlog® & News

Nearby

Air Quality

  Air Quality AQ Index Pollutant
Not available.

Snow Depth

Station Depth Elevation

Earthquake Activity

City Distance Mag. Time & Date
Minimum magnitude displayed is 2.5.

Coastal Water Temperatures

Place Temperature

Stations

Nearby Weather Stations

Station Location Temp. Windchill Dew Point Humidity Wind Precip. Elev Updated Type